createdAt,value
2018-02-09T00:00:13.322Z,29.75
2018-02-09T00:01:17.544Z,31.70
2018-02-09T00:02:21.800Z,29.75
2018-02-09T00:03:26.034Z,31.02
2018-02-09T00:04:31.103Z,32.13
2018-02-09T00:05:35.314Z,32.67
2018-02-09T00:06:39.509Z,29.77
2018-02-09T00:07:43.715Z,32.20
2018-02-09T00:08:47.989Z,32.20
2018-02-09T00:09:52.232Z,29.65
2018-02-09T00:10:56.537Z,30.58
2018-02-09T00:12:00.782Z,32.83
2018-02-09T00:13:04.986Z,29.95
2018-02-09T00:14:09.204Z,28.50
2018-02-09T00:15:13.411Z,29.95
2018-02-09T00:16:17.657Z,31.37
2018-02-09T00:17:21.952Z,29.63
2018-02-09T00:18:26.161Z,29.25
2018-02-09T00:19:30.731Z,27.08
2018-02-09T00:20:35.678Z,29.50
2018-02-09T00:21:39.902Z,31.02
2018-02-09T00:22:54.082Z,28.50
2018-02-09T00:23:58.345Z,29.08
2018-02-09T00:25:03.080Z,27.87
2018-02-09T00:26:07.300Z,27.83
2018-02-09T00:27:11.487Z,32.00
2018-02-09T00:28:15.694Z,31.37
2018-02-09T00:29:20.626Z,29.20
2018-02-09T00:30:24.904Z,30.12
2018-02-09T00:31:29.878Z,32.53
2018-02-09T00:32:34.926Z,31.65
2018-02-09T00:33:39.111Z,31.00
2018-02-09T00:34:43.353Z,30.88
2018-02-09T00:35:47.611Z,30.85
2018-02-09T00:36:51.882Z,32.50
2018-02-09T00:37:56.133Z,31.87
2018-02-09T00:39:01.105Z,30.67
2018-02-09T00:40:05.435Z,29.70
2018-02-09T00:41:09.578Z,30.95
2018-02-09T00:42:14.532Z,31.90
2018-02-09T00:43:20.071Z,30.88
2018-02-09T00:44:24.317Z,31.60
2018-02-09T00:45:28.568Z,31.83
2018-02-09T00:46:33.567Z,30.80
2018-02-09T00:47:37.759Z,30.05
2018-02-09T00:48:41.943Z,31.33
2018-02-09T00:49:46.168Z,28.45
2018-02-09T00:50:50.570Z,30.10
2018-02-09T00:51:54.855Z,29.60
2018-02-09T00:52:59.825Z,32.05
2018-02-09T00:54:04.045Z,31.90
2018-02-09T00:55:08.271Z,31.65
2018-02-09T00:56:12.484Z,29.55
2018-02-09T00:57:17.267Z,30.77
2018-02-09T00:58:21.648Z,29.50
2018-02-09T00:59:26.634Z,31.42
2018-02-09T01:00:30.852Z,30.27
2018-02-09T01:01:35.077Z,29.08
2018-02-09T01:02:39.290Z,31.20
2018-02-09T01:03:43.494Z,31.17
2018-02-09T01:04:47.804Z,30.10
2018-02-09T01:05:52.662Z,31.02
2018-02-09T01:06:57.657Z,30.60
2018-02-09T01:08:01.891Z,29.20
2018-02-09T01:09:06.097Z,32.00
2018-02-09T01:10:10.882Z,31.37
2018-02-09T01:11:15.077Z,28.27
2018-02-09T01:12:19.384Z,31.33
2018-02-09T01:13:23.623Z,29.33
2018-02-09T01:14:27.857Z,30.10
2018-02-09T01:15:32.079Z,31.00
2018-02-09T01:16:36.264Z,30.58
2018-02-09T01:17:40.484Z,29.08
2018-02-09T01:18:44.701Z,30.23
2018-02-09T01:19:49.341Z,29.70
2018-02-09T01:20:54.447Z,30.58
2018-02-09T01:21:58.662Z,29.83
2018-02-09T01:23:02.919Z,31.33
2018-02-09T01:24:07.866Z,29.90
2018-02-09T01:25:12.071Z,28.90
2018-02-09T01:26:16.271Z,30.77
2018-02-09T01:27:20.552Z,29.08
2018-02-09T01:28:25.323Z,31.70
2018-02-09T01:29:29.533Z,30.12
2018-02-09T01:30:33.759Z,29.50
2018-02-09T01:31:38.300Z,30.83
2018-02-09T01:32:42.508Z,30.75
2018-02-09T01:33:47.201Z,30.95
2018-02-09T01:34:51.618Z,30.62
2018-02-09T01:35:55.880Z,32.33
2018-02-09T01:37:00.092Z,31.67
2018-02-09T01:38:04.320Z,31.48
2018-02-09T01:39:09.370Z,31.87
2018-02-09T01:40:14.356Z,30.60
2018-02-09T01:41:18.715Z,32.08
2018-02-09T01:42:23.313Z,32.35
2018-02-09T01:43:28.310Z,29.48
2018-02-09T01:44:32.576Z,29.87
2018-02-09T01:45:36.793Z,29.27
2018-02-09T01:46:40.993Z,30.98
2018-02-09T01:47:45.208Z,30.60
2018-02-09T01:48:49.461Z,31.00
2018-02-09T01:50:12.374Z,30.67
2018-02-09T01:51:16.574Z,31.23
2018-02-09T01:52:21.073Z,29.60
2018-02-09T01:53:25.364Z,30.42
2018-02-09T01:54:29.575Z,30.67
2018-02-09T01:55:33.816Z,30.23
2018-02-09T01:56:38.814Z,32.30
2018-02-09T01:57:43.001Z,32.45
2018-02-09T01:58:47.313Z,31.70
2018-02-09T01:59:51.611Z,31.62
2018-02-09T02:00:56.923Z,31.58
2018-02-09T02:02:01.147Z,29.30
2018-02-09T02:03:05.340Z,30.73
2018-02-09T02:04:10.388Z,30.27
2018-02-09T02:05:14.585Z,31.15
2018-02-09T02:06:19.098Z,31.73
2018-02-09T02:07:23.363Z,32.70
2018-02-09T02:08:27.567Z,30.25
2018-02-09T02:09:31.771Z,26.50
2018-02-09T02:10:35.995Z,29.92
2018-02-09T02:11:40.196Z,33.13
2018-02-09T02:12:44.395Z,33.72
2018-02-09T02:13:48.724Z,33.17
2018-02-09T02:14:52.974Z,31.60
2018-02-09T02:15:57.983Z,31.83
2018-02-09T02:17:02.188Z,31.00
2018-02-09T02:18:06.416Z,30.45
2018-02-09T02:19:10.626Z,31.15
2018-02-09T02:20:14.819Z,31.83
2018-02-09T02:21:19.107Z,28.62
2018-02-09T02:22:23.714Z,33.28
2018-02-09T02:23:28.083Z,33.78
2018-02-09T02:24:32.311Z,31.73
2018-02-09T02:25:37.267Z,31.35
2018-02-09T02:26:41.466Z,31.65
2018-02-09T02:27:45.708Z,31.10
2018-02-09T02:28:50.189Z,31.12
2018-02-09T02:29:54.432Z,32.63
2018-02-09T02:30:58.817Z,32.75
2018-02-09T02:32:03.002Z,32.25
2018-02-09T02:33:07.238Z,32.53
2018-02-09T02:34:11.438Z,33.17
2018-02-09T02:35:15.634Z,32.78
2018-02-09T02:36:20.685Z,31.08
2018-02-09T02:37:24.960Z,33.08
2018-02-09T02:38:29.305Z,32.42
2018-02-09T02:39:33.527Z,30.95
2018-02-09T02:40:37.719Z,32.80
2018-02-09T02:41:42.682Z,32.05
2018-02-09T02:42:47.064Z,34.08
2018-02-09T02:43:52.360Z,33.83
2018-02-09T02:44:56.586Z,34.05
2018-02-09T02:46:00.788Z,32.95
2018-02-09T02:47:04.987Z,32.70
2018-02-09T02:48:09.171Z,32.35
2018-02-09T02:49:13.457Z,32.28
2018-02-09T02:50:18.482Z,33.13
2018-02-09T02:51:22.764Z,32.30
2018-02-09T02:52:27.197Z,34.80
2018-02-09T02:53:31.431Z,31.23
2018-02-09T02:54:36.089Z,33.30
2018-02-09T02:55:40.285Z,31.95
2018-02-09T02:56:44.516Z,33.15
2018-02-09T02:57:48.802Z,34.08
2018-02-09T02:58:53.170Z,30.60
2018-02-09T02:59:57.872Z,32.38
2018-02-09T03:01:02.094Z,33.75
2018-02-09T03:02:06.293Z,33.38
2018-02-09T03:03:10.479Z,31.30
2018-02-09T03:04:14.692Z,32.20
2018-02-09T03:05:20.131Z,35.50
2018-02-09T03:06:24.392Z,31.35
2018-02-09T03:07:28.586Z,34.88
2018-02-09T03:08:32.780Z,32.25
2018-02-09T03:09:36.977Z,33.47
2018-02-09T03:10:41.590Z,32.60
2018-02-09T03:11:45.798Z,34.92
2018-02-09T03:12:50.276Z,33.30
2018-02-09T03:13:54.531Z,33.78
2018-02-09T03:14:58.727Z,34.50
2018-02-09T03:16:02.936Z,32.33
2018-02-09T03:17:07.116Z,33.92
2018-02-09T03:18:11.322Z,34.45
2018-02-09T03:19:15.591Z,35.33
2018-02-09T03:20:19.871Z,34.95
2018-02-09T03:21:24.136Z,33.35
2018-02-09T03:22:28.356Z,35.10
2018-02-09T03:23:32.585Z,33.85
2018-02-09T03:24:37.564Z,33.40
2018-02-09T03:25:41.803Z,35.78
2018-02-09T03:26:45.991Z,35.20
2018-02-09T03:27:50.348Z,32.10
2018-02-09T03:28:55.397Z,33.40
2018-02-09T03:30:00.438Z,33.92
2018-02-09T03:31:04.637Z,34.42
2018-02-09T03:32:09.607Z,33.20
2018-02-09T03:33:14.634Z,36.33
2018-02-09T03:34:18.983Z,34.72
2018-02-09T03:35:23.341Z,33.65
2018-02-09T03:36:27.629Z,34.00
2018-02-09T03:37:32.611Z,34.42
2018-02-09T03:38:36.837Z,35.90
2018-02-09T03:39:41.168Z,35.25
2018-02-09T03:40:45.411Z,32.63
2018-02-09T03:41:49.680Z,35.45
2018-02-09T03:42:54.811Z,35.53
2018-02-09T03:43:59.099Z,35.10
2018-02-09T03:45:03.333Z,34.80
2018-02-09T03:46:07.551Z,36.30
2018-02-09T03:47:11.780Z,36.47
2018-02-09T03:48:16.766Z,34.53
2018-02-09T03:49:21.062Z,34.33
2018-02-09T03:50:25.544Z,34.35
2018-02-09T03:51:30.525Z,35.85
2018-02-09T03:52:34.749Z,37.45
2018-02-09T03:53:39.059Z,36.75
2018-02-09T03:54:43.276Z,32.33
2018-02-09T03:55:47.578Z,37.28
2018-02-09T03:56:52.210Z,33.88
2018-02-09T03:57:56.425Z,35.85
2018-02-09T03:59:02.161Z,35.08
2018-02-09T04:00:06.382Z,34.85
2018-02-09T04:01:10.649Z,35.50
2018-02-09T04:02:14.864Z,36.30
2018-02-09T04:03:19.358Z,36.67
2018-02-09T04:04:23.749Z,35.35
2018-02-09T04:05:28.068Z,35.40
2018-02-09T04:06:33.084Z,34.80
2018-02-09T04:07:37.404Z,34.67
2018-02-09T04:08:41.593Z,36.63
2018-02-09T04:09:45.817Z,34.88
2018-02-09T04:10:50.136Z,36.53
2018-02-09T04:11:55.143Z,38.83
2018-02-09T04:13:00.311Z,37.10
2018-02-09T04:14:05.270Z,35.75
2018-02-09T04:15:09.496Z,37.83
2018-02-09T04:16:13.740Z,36.33
2018-02-09T04:17:18.070Z,36.05
2018-02-09T04:18:22.775Z,36.88
2018-02-09T04:19:27.042Z,35.03
2018-02-09T04:20:31.278Z,35.13
2018-02-09T04:21:35.495Z,36.05
2018-02-09T04:22:39.721Z,35.13
2018-02-09T04:23:43.959Z,38.00
2018-02-09T04:24:49.316Z,36.85
2018-02-09T04:25:53.730Z,37.50
2018-02-09T04:26:58.359Z,34.78
2018-02-09T04:28:02.561Z,37.28
2018-02-09T04:29:06.836Z,34.10
2018-02-09T04:30:11.028Z,37.33
2018-02-09T04:31:15.219Z,40.05
2018-02-09T04:32:20.041Z,36.83
2018-02-09T04:33:24.306Z,38.15
2018-02-09T04:34:29.359Z,35.40
2018-02-09T04:35:33.543Z,38.03
2018-02-09T04:36:37.789Z,34.03
2018-02-09T04:37:42.025Z,37.40
2018-02-09T04:38:46.329Z,34.88
2018-02-09T04:39:50.727Z,38.63
2018-02-09T04:40:55.034Z,36.67
2018-02-09T04:41:59.227Z,36.75
2018-02-09T04:43:04.203Z,37.33
2018-02-09T04:44:08.472Z,35.90
2018-02-09T04:45:13.446Z,35.53
2018-02-09T04:46:17.758Z,36.72
2018-02-09T04:47:22.525Z,35.97
2018-02-09T04:48:27.686Z,37.72
2018-02-09T04:49:31.919Z,36.55
2018-02-09T04:50:36.149Z,34.88
2018-02-09T04:51:40.363Z,35.85
2018-02-09T04:52:44.583Z,38.20
2018-02-09T04:53:49.777Z,38.30
2018-02-09T04:54:54.471Z,37.55
2018-02-09T04:55:58.680Z,36.40
2018-02-09T04:57:03.689Z,38.03
2018-02-09T04:58:07.904Z,34.80
2018-02-09T04:59:12.211Z,36.40
2018-02-09T05:00:16.564Z,36.75
2018-02-09T05:01:20.886Z,37.75
2018-02-09T05:02:25.115Z,40.38
2018-02-09T05:03:29.401Z,37.40
2018-02-09T05:04:33.643Z,36.08
2018-02-09T05:05:38.232Z,36.60
2018-02-09T05:06:42.544Z,35.75
2018-02-09T05:07:46.806Z,37.03
2018-02-09T05:08:51.857Z,36.15
2018-02-09T05:09:56.887Z,37.85
2018-02-09T05:11:01.972Z,36.20
2018-02-09T05:12:06.179Z,34.33
2018-02-09T05:13:10.383Z,37.30
2018-02-09T05:14:14.596Z,35.13
2018-02-09T05:15:18.930Z,37.38
2018-02-09T05:16:23.196Z,34.85
2018-02-09T05:17:27.490Z,35.58
2018-02-09T05:18:32.467Z,36.60
2018-02-09T05:19:36.656Z,36.40
2018-02-09T05:20:40.876Z,35.53
2018-02-09T05:21:45.088Z,36.50
2018-02-09T05:22:50.536Z,37.67
2018-02-09T05:23:55.000Z,38.28
2018-02-09T05:24:59.220Z,34.80
2018-02-09T05:26:04.200Z,38.10
2018-02-09T05:27:08.416Z,37.40
2018-02-09T05:28:12.655Z,38.15
2018-02-09T05:29:16.915Z,36.80
2018-02-09T05:30:21.802Z,33.88
2018-02-09T05:31:27.058Z,36.75
2018-02-09T05:32:31.243Z,35.50
2018-02-09T05:33:35.460Z,33.22
2018-02-09T05:34:40.032Z,37.70
2018-02-09T05:35:44.247Z,37.67
2018-02-09T05:36:50.078Z,37.20
2018-02-09T05:37:54.448Z,34.90
2018-02-09T05:38:58.662Z,35.25
2018-02-09T05:40:02.920Z,37.17
2018-02-09T05:41:07.149Z,35.60
2018-02-09T05:42:11.359Z,38.53
2018-02-09T05:43:15.556Z,37.28
2018-02-09T05:44:20.606Z,34.22
2018-02-09T05:45:24.873Z,37.20
2018-02-09T05:46:29.131Z,36.38
2018-02-09T05:47:33.385Z,36.00
2018-02-09T05:48:38.370Z,37.88
2018-02-09T05:49:42.589Z,37.78
2018-02-09T05:50:46.859Z,35.28
2018-02-09T05:51:51.155Z,36.97
2018-02-09T05:52:55.408Z,36.75
2018-02-09T05:53:59.653Z,34.97
2018-02-09T05:55:03.855Z,34.63
2018-02-09T05:56:08.082Z,36.10
2018-02-09T05:57:13.032Z,36.67
2018-02-09T05:58:17.878Z,37.83
2018-02-09T05:59:22.136Z,36.85
2018-02-09T06:00:26.395Z,34.35
2018-02-09T06:01:30.685Z,34.85
2018-02-09T06:02:35.671Z,36.05
2018-02-09T06:03:39.891Z,33.17
2018-02-09T06:04:45.621Z,35.97
2018-02-09T06:05:49.931Z,35.95
2018-02-09T06:06:55.103Z,34.65
2018-02-09T06:08:00.087Z,34.80
2018-02-09T06:09:04.350Z,36.45
2018-02-09T06:10:09.328Z,36.85
2018-02-09T06:11:13.629Z,33.78
2018-02-09T06:12:17.962Z,36.20
2018-02-09T06:13:22.543Z,34.47
2018-02-09T06:14:27.568Z,35.55
2018-02-09T06:15:31.789Z,35.92
2018-02-09T06:16:36.068Z,35.55
2018-02-09T06:17:41.032Z,38.25
2018-02-09T06:18:45.219Z,35.40
2018-02-09T06:19:49.611Z,36.13
2018-02-09T06:20:53.808Z,37.88
2018-02-09T06:21:58.060Z,35.25
2018-02-09T06:23:03.047Z,36.00
2018-02-09T06:24:07.235Z,34.70
2018-02-09T06:25:11.423Z,35.42
2018-02-09T06:26:15.666Z,38.03
2018-02-09T06:27:19.918Z,34.85
2018-02-09T06:28:25.272Z,33.95
2018-02-09T06:29:29.479Z,38.53
2018-02-09T06:30:34.509Z,33.88
2018-02-09T06:31:39.495Z,34.83
2018-02-09T06:32:43.748Z,36.20
2018-02-09T06:33:49.485Z,33.35
2018-02-09T06:34:53.789Z,35.45
2018-02-09T06:35:58.812Z,35.72
2018-02-09T06:37:03.066Z,32.70
2018-02-09T06:38:07.328Z,36.83
2018-02-09T06:39:11.583Z,34.40
2018-02-09T06:40:15.796Z,35.90
2018-02-09T06:41:23.194Z,34.67
2018-02-09T06:42:27.601Z,34.80
2018-02-09T06:43:31.833Z,34.95
2018-02-09T06:44:36.108Z,36.35
2018-02-09T06:45:41.099Z,33.25
2018-02-09T06:46:45.319Z,34.95
2018-02-09T06:47:51.728Z,34.60
2018-02-09T06:48:57.604Z,32.28
2018-02-09T06:50:01.822Z,35.38
2018-02-09T06:51:06.048Z,35.17
2018-02-09T06:52:10.268Z,33.40
2018-02-09T06:53:15.261Z,34.05
2018-02-09T06:54:19.500Z,34.78
2018-02-09T06:55:24.577Z,34.38
2018-02-09T06:56:28.807Z,34.25
2018-02-09T06:57:33.032Z,35.85
2018-02-09T06:58:37.224Z,30.55
2018-02-09T06:59:41.422Z,34.30
2018-02-09T07:00:45.637Z,33.78
2018-02-09T07:01:49.889Z,34.55
2018-02-09T07:02:54.153Z,34.40
2018-02-09T07:03:58.454Z,35.47
2018-02-09T07:05:03.485Z,34.53
2018-02-09T07:06:08.525Z,33.20
2018-02-09T07:07:12.715Z,34.92
2018-02-09T07:08:17.838Z,35.15
2018-02-09T07:09:22.093Z,32.83
2018-02-09T07:10:26.392Z,33.15
2018-02-09T07:11:30.608Z,34.95
2018-02-09T07:12:34.821Z,32.55
2018-02-09T07:13:39.039Z,36.03
2018-02-09T07:14:43.271Z,32.58
2018-02-09T07:15:47.488Z,32.85
2018-02-09T07:16:51.699Z,31.80
2018-02-09T07:17:55.951Z,31.77
2018-02-09T07:19:00.928Z,30.62
2018-02-09T07:20:05.208Z,35.33
2018-02-09T07:21:09.424Z,34.63
2018-02-09T07:22:14.068Z,33.42
2018-02-09T07:23:18.263Z,34.65
2018-02-09T07:24:22.768Z,34.40
2018-02-09T07:25:27.067Z,34.28
2018-02-09T07:26:32.056Z,32.53
2018-02-09T07:27:36.351Z,30.83
2018-02-09T07:28:40.556Z,31.30
2018-02-09T07:29:44.746Z,31.73
2018-02-09T07:30:48.977Z,33.60
2018-02-09T07:31:53.196Z,32.42
2018-02-09T07:32:57.463Z,32.55
2018-02-09T07:34:02.420Z,32.20
2018-02-09T07:35:06.653Z,32.20
2018-02-09T07:36:10.868Z,32.10
2018-02-09T07:37:15.104Z,32.53
2018-02-09T07:38:19.389Z,30.95
2018-02-09T07:39:23.595Z,29.58
2018-02-09T07:40:27.811Z,32.08
2018-02-09T07:41:32.047Z,31.45
2018-02-09T07:42:36.273Z,29.92
2018-02-09T07:43:41.277Z,32.25
2018-02-09T07:44:45.488Z,29.73
2018-02-09T07:45:49.758Z,30.85
2018-02-09T07:46:54.022Z,29.55
2018-02-09T07:47:58.216Z,27.50
2018-02-09T07:49:03.279Z,31.45
2018-02-09T07:50:08.254Z,28.95
2018-02-09T07:51:12.497Z,30.62
2018-02-09T07:52:16.725Z,30.10
2018-02-09T07:53:20.994Z,29.75
2018-02-09T07:54:25.267Z,28.38
2018-02-09T07:55:29.549Z,31.48
2018-02-09T07:56:33.763Z,30.42
2018-02-09T07:57:37.991Z,26.50
2018-02-09T07:58:42.988Z,28.40
2018-02-09T07:59:47.411Z,28.23
2018-02-09T08:00:52.824Z,30.90
2018-02-09T08:01:57.044Z,29.45
2018-02-09T08:03:01.268Z,28.23
2018-02-09T08:04:05.451Z,28.90
2018-02-09T08:05:09.681Z,29.60
2018-02-09T08:06:13.934Z,27.83
2018-02-09T08:07:18.176Z,28.05
2018-02-09T08:08:22.384Z,29.50
2018-02-09T08:09:26.859Z,25.50
2018-02-09T08:10:31.899Z,27.55
2018-02-09T08:11:36.534Z,28.67
2018-02-09T08:12:40.726Z,26.50
2018-02-09T08:13:45.721Z,25.27
2018-02-09T08:14:50.386Z,25.85
2018-02-09T08:15:54.671Z,26.90
2018-02-09T08:16:59.814Z,27.77
2018-02-09T08:18:04.791Z,27.58
2018-02-09T08:19:09.011Z,24.42
2018-02-09T08:20:13.195Z,26.05
2018-02-09T08:21:17.419Z,24.67
2018-02-09T08:22:21.676Z,26.35
2018-02-09T08:23:25.932Z,27.30
2018-02-09T08:24:30.120Z,23.98
2018-02-09T08:25:35.132Z,23.95
2018-02-09T08:26:39.344Z,24.15
2018-02-09T08:27:43.590Z,25.27
2018-02-09T08:28:48.267Z,25.17
2018-02-09T08:29:53.272Z,24.48
2018-02-09T08:30:57.888Z,24.10
2018-02-09T08:32:02.095Z,25.95
2018-02-09T08:33:06.313Z,24.73
2018-02-09T08:34:10.580Z,24.42
2018-02-09T08:35:15.617Z,26.08
2018-02-09T08:36:20.685Z,25.00
2018-02-09T08:37:25.446Z,24.87
2018-02-09T08:38:29.668Z,24.23
2018-02-09T08:39:34.737Z,24.40
2018-02-09T08:40:38.943Z,25.10
2018-02-09T08:41:43.192Z,24.60
2018-02-09T08:42:47.459Z,24.12
2018-02-09T08:43:51.720Z,25.25
2018-02-09T08:44:55.972Z,24.83
2018-02-09T08:46:00.177Z,22.70
2018-02-09T08:47:05.128Z,26.37
2018-02-09T08:48:09.311Z,24.77
2018-02-09T08:49:14.410Z,24.27
2018-02-09T08:50:19.110Z,23.12
2018-02-09T08:51:23.358Z,23.77
2018-02-09T08:52:27.599Z,21.77
2018-02-09T08:53:31.822Z,24.20
2018-02-09T08:54:36.011Z,22.85
2018-02-09T08:55:40.265Z,24.63
2018-02-09T08:56:44.472Z,22.30
2018-02-09T08:57:48.725Z,22.80
2018-02-09T08:58:52.962Z,25.20
2018-02-09T08:59:57.160Z,24.85
2018-02-09T09:01:02.151Z,23.00
2018-02-09T09:02:06.613Z,23.38
2018-02-09T09:03:11.597Z,24.85
2018-02-09T09:04:15.790Z,25.20
2018-02-09T09:05:20.378Z,22.60
2018-02-09T09:06:24.639Z,23.33
2018-02-09T09:07:28.852Z,25.20
2018-02-09T09:08:33.045Z,24.35
2018-02-09T09:09:37.242Z,23.92
2018-02-09T09:10:41.438Z,23.65
2018-02-09T09:11:45.942Z,23.58
2018-02-09T09:12:50.938Z,21.98
2018-02-09T09:13:55.139Z,21.00
2018-02-09T09:14:59.318Z,22.92
2018-02-09T09:16:03.591Z,23.15
2018-02-09T09:17:08.619Z,24.15
2018-02-09T09:18:13.554Z,22.02
2018-02-09T09:19:18.580Z,22.20
2018-02-09T09:20:22.837Z,22.48
2018-02-09T09:21:27.311Z,22.95
2018-02-09T09:22:32.367Z,22.92
2018-02-09T09:23:36.573Z,22.80
2018-02-09T09:24:40.888Z,21.80
2018-02-09T09:25:45.078Z,22.67
2018-02-09T09:26:50.196Z,21.87
2018-02-09T09:27:55.456Z,21.57
2018-02-09T09:28:59.631Z,20.83
2018-02-09T09:30:03.821Z,21.92
2018-02-09T09:31:08.009Z,21.30
2018-02-09T09:32:12.263Z,21.05
2018-02-09T09:33:16.599Z,21.90
2018-02-09T09:34:21.294Z,21.10
2018-02-09T09:35:26.349Z,21.65
2018-02-09T09:36:30.563Z,20.55
2018-02-09T09:37:35.578Z,21.23
2018-02-09T09:38:39.764Z,21.58
2018-02-09T09:39:43.966Z,21.40
2018-02-09T09:40:48.235Z,22.20
2018-02-09T09:41:52.539Z,21.73
2018-02-09T09:42:56.976Z,22.95
2018-02-09T09:44:01.238Z,20.15
2018-02-09T09:45:06.972Z,21.83
2018-02-09T09:46:11.195Z,21.35
2018-02-09T09:47:15.398Z,21.62
2018-02-09T09:48:20.504Z,19.70
2018-02-09T09:49:24.805Z,21.75
2018-02-09T09:50:29.006Z,20.95
2018-02-09T09:51:33.207Z,20.75
2018-02-09T09:52:37.391Z,18.75
2018-02-09T09:53:41.577Z,21.60
2018-02-09T09:54:45.794Z,22.52
2018-02-09T09:55:50.430Z,21.80
2018-02-09T09:56:55.454Z,22.50
2018-02-09T09:57:59.690Z,19.67
2018-02-09T09:59:04.743Z,17.90
2018-02-09T10:00:09.015Z,19.73
2018-02-09T10:01:18.816Z,21.42
2018-02-09T10:02:40.799Z,21.30
2018-02-09T10:03:45.763Z,19.70
2018-02-09T10:04:50.638Z,21.30
2018-02-09T10:05:54.870Z,19.10
2018-02-09T10:06:59.830Z,19.25
2018-02-09T10:08:04.198Z,20.52
2018-02-09T10:09:08.432Z,19.65
2018-02-09T10:10:12.662Z,21.00
2018-02-09T10:11:16.885Z,18.37
2018-02-09T10:12:21.556Z,19.70
2018-02-09T10:13:26.551Z,18.08
2018-02-09T10:14:31.034Z,18.33
2018-02-09T10:15:35.254Z,17.92
2018-02-09T10:16:39.442Z,17.98
2018-02-09T10:17:43.621Z,17.62
2018-02-09T10:18:47.826Z,19.13
2018-02-09T10:19:52.870Z,17.85
2018-02-09T10:20:57.156Z,19.63
2018-02-09T10:22:01.347Z,18.60
2018-02-09T10:23:05.554Z,17.10
2018-02-09T10:24:09.769Z,16.00
2018-02-09T10:25:14.005Z,16.55
2018-02-09T10:26:18.467Z,15.52
2018-02-09T10:27:23.301Z,18.40
2018-02-09T10:28:27.802Z,17.58
2018-02-09T10:29:32.064Z,16.62
2018-02-09T10:30:36.254Z,16.83
2018-02-09T10:31:41.264Z,14.37
2018-02-09T10:32:46.216Z,16.77
2018-02-09T10:33:50.523Z,15.82
2018-02-09T10:34:54.813Z,15.98
2018-02-09T10:35:59.870Z,16.98
2018-02-09T10:37:04.071Z,15.80
2018-02-09T10:38:08.300Z,16.00
2018-02-09T10:39:12.494Z,15.93
2018-02-09T10:40:16.786Z,15.73
2018-02-09T10:41:21.054Z,14.90
2018-02-09T10:42:25.300Z,13.10
2018-02-09T10:43:29.531Z,16.50
2018-02-09T10:44:34.815Z,16.40
2018-02-09T10:45:39.023Z,15.13
2018-02-09T10:46:43.257Z,14.67
2018-02-09T10:47:47.558Z,15.90
2018-02-09T10:48:52.096Z,14.67
2018-02-09T10:49:57.356Z,14.87
2018-02-09T10:51:01.569Z,15.53
2018-02-09T10:52:05.753Z,15.13
2018-02-09T10:53:10.738Z,14.20
2018-02-09T10:54:14.921Z,14.35
2018-02-09T10:55:19.232Z,16.00
2018-02-09T10:56:23.514Z,16.45
2018-02-09T10:57:28.863Z,14.35
2018-02-09T10:58:33.815Z,14.77
2018-02-09T10:59:37.982Z,14.60
2018-02-09T11:00:47.851Z,15.20
2018-02-09T11:01:53.373Z,15.50
2018-02-09T11:02:59.218Z,16.80
2018-02-09T11:04:03.408Z,15.87
2018-02-09T11:05:07.592Z,16.50
2018-02-09T11:06:11.812Z,17.20
2018-02-09T11:07:16.059Z,16.57
2018-02-09T11:08:20.886Z,16.03
2018-02-09T11:09:30.716Z,15.47
2018-02-09T11:10:34.950Z,15.48
2018-02-09T11:11:40.282Z,16.10
2018-02-09T11:12:45.258Z,15.43
2018-02-09T11:13:49.617Z,15.60
2018-02-09T11:14:54.861Z,17.37
2018-02-09T11:15:59.841Z,17.17
2018-02-09T11:17:04.479Z,17.13
2018-02-09T11:18:08.684Z,17.07
2018-02-09T11:19:12.901Z,14.55
2018-02-09T11:20:17.137Z,17.70
2018-02-09T11:21:22.681Z,17.90
2018-02-09T11:22:27.295Z,18.50
2018-02-09T11:23:32.274Z,16.47
2018-02-09T11:24:36.449Z,18.20
2018-02-09T11:25:41.498Z,18.27
2018-02-09T11:26:45.693Z,18.17
2018-02-09T11:27:50.486Z,20.20
2018-02-09T11:28:55.666Z,17.57
2018-02-09T11:30:04.415Z,18.63
2018-02-09T11:31:08.786Z,16.30
2018-02-09T11:32:13.738Z,17.20
2018-02-09T11:33:18.215Z,17.43
2018-02-09T11:34:22.611Z,18.15
2018-02-09T11:35:26.821Z,16.40
2018-02-09T11:36:31.032Z,16.87
2018-02-09T11:37:35.250Z,16.98
2018-02-09T11:38:39.454Z,18.87
2018-02-09T11:39:43.645Z,18.03
2018-02-09T11:40:48.066Z,18.40
2018-02-09T11:41:53.787Z,17.27
2018-02-09T11:42:58.000Z,18.98
2018-02-09T11:44:02.254Z,19.47
2018-02-09T11:45:06.450Z,19.63
2018-02-09T11:46:10.666Z,18.30
2018-02-09T11:47:14.838Z,19.20
2018-02-09T11:48:19.691Z,19.70
2018-02-09T11:49:23.987Z,18.67
2018-02-09T11:50:28.231Z,18.57
2018-02-09T11:51:33.958Z,18.70
2018-02-09T11:52:38.131Z,19.67
2018-02-09T11:53:42.311Z,20.20
2018-02-09T11:54:47.794Z,20.20
2018-02-09T11:55:52.038Z,20.43
2018-02-09T11:56:56.298Z,20.37
2018-02-09T11:58:00.573Z,19.30
2018-02-09T11:59:04.771Z,20.20
2018-02-09T12:00:09.003Z,20.27
2018-02-09T12:01:13.225Z,20.20
2018-02-09T12:02:18.237Z,21.20
2018-02-09T12:03:22.510Z,22.10
2018-02-09T12:04:27.632Z,21.30
2018-02-09T12:05:31.873Z,19.83
2018-02-09T12:06:36.065Z,21.27
2018-02-09T12:07:40.290Z,18.87
2018-02-09T12:08:44.467Z,19.93
2018-02-09T12:09:48.730Z,19.03
2018-02-09T12:10:53.026Z,21.60
2018-02-09T12:11:57.305Z,19.73
2018-02-09T12:13:01.484Z,20.33
2018-02-09T12:14:05.658Z,18.43
2018-02-09T12:15:09.836Z,20.52
2018-02-09T12:16:14.073Z,18.97
2018-02-09T12:17:18.308Z,20.55
2018-02-09T12:18:22.586Z,19.23
2018-02-09T12:19:26.985Z,22.47
2018-02-09T12:20:31.242Z,21.12
2018-02-09T12:21:35.423Z,20.17
2018-02-09T12:22:39.599Z,18.83
2018-02-09T12:23:44.558Z,21.27
2018-02-09T12:24:48.846Z,20.57
2018-02-09T12:25:53.500Z,22.43
2018-02-09T12:26:57.700Z,22.42
2018-02-09T12:28:01.930Z,21.67
2018-02-09T12:29:06.116Z,23.97
2018-02-09T12:30:10.321Z,23.67
2018-02-09T12:31:14.931Z,23.80
2018-02-09T12:32:19.402Z,23.00
2018-02-09T12:33:23.794Z,23.53
2018-02-09T12:34:28.098Z,24.30
2018-02-09T12:35:32.329Z,22.47
2018-02-09T12:36:36.551Z,20.47
2018-02-09T12:37:40.723Z,23.03
2018-02-09T12:38:44.900Z,23.77
2018-02-09T12:39:50.791Z,23.13
2018-02-09T12:40:55.038Z,23.63
2018-02-09T12:41:59.598Z,21.30
2018-02-09T12:43:04.587Z,22.23
2018-02-09T12:44:09.129Z,20.13
2018-02-09T12:45:14.076Z,21.53
2018-02-09T12:46:18.317Z,21.27
2018-02-09T12:47:22.683Z,22.92
2018-02-09T12:48:26.988Z,20.23
2018-02-09T12:49:31.987Z,20.67
2018-02-09T12:50:36.203Z,19.47
2018-02-09T12:51:40.395Z,20.70
2018-02-09T12:52:44.603Z,20.20
2018-02-09T12:53:49.998Z,20.30
2018-02-09T12:54:55.017Z,21.10
2018-02-09T12:56:00.021Z,20.50
2018-02-09T12:57:04.248Z,17.93
2018-02-09T12:58:08.478Z,20.27
2018-02-09T12:59:13.435Z,19.30
2018-02-09T13:00:18.983Z,20.77
2018-02-09T13:01:23.160Z,19.53
2018-02-09T13:02:28.565Z,19.00
2018-02-09T13:03:32.760Z,19.80
2018-02-09T13:04:36.944Z,20.43
2018-02-09T13:05:41.163Z,21.93
2018-02-09T13:06:45.387Z,18.83
2018-02-09T13:07:49.636Z,21.33
2018-02-09T13:08:53.950Z,22.10
2018-02-09T13:09:58.458Z,18.87
2018-02-09T13:11:02.702Z,20.40
2018-02-09T13:12:07.730Z,19.40
2018-02-09T13:13:11.982Z,20.08
2018-02-09T13:14:31.614Z,19.70
2018-02-09T13:15:36.617Z,21.30
2018-02-09T13:16:40.823Z,21.70
2018-02-09T13:17:45.009Z,20.50
2018-02-09T13:18:50.156Z,20.42
2018-02-09T13:19:54.531Z,19.97
2018-02-09T13:20:58.805Z,19.33
2018-02-09T13:22:03.030Z,20.67
2018-02-09T13:23:25.857Z,21.95
2018-02-09T13:24:31.010Z,20.77
2018-02-09T13:25:36.018Z,21.27
2018-02-09T13:26:40.237Z,21.93
2018-02-09T13:27:44.432Z,20.90
2018-02-09T13:29:00.127Z,21.53
2018-02-09T13:30:04.342Z,22.13
2018-02-09T13:31:08.524Z,23.53
2018-02-09T13:32:24.450Z,23.37
2018-02-09T13:33:32.354Z,21.67
2018-02-09T13:34:37.323Z,22.00
2018-02-09T13:35:41.518Z,22.50
2018-02-09T13:38:49.029Z,21.17
2018-02-09T13:39:54.131Z,24.90
2018-02-09T13:40:59.099Z,24.20
2018-02-09T13:42:03.313Z,24.07
2018-02-09T13:43:07.520Z,22.77
2018-02-09T13:44:11.710Z,23.60
2018-02-09T13:45:15.899Z,22.60
2018-02-09T13:46:20.898Z,21.80
2018-02-09T13:47:25.114Z,24.17
2018-02-09T13:48:29.326Z,22.87
2018-02-09T13:49:34.268Z,23.10
2018-02-09T13:50:38.451Z,22.70
2018-02-09T13:51:43.401Z,25.70
2018-02-09T13:52:47.595Z,23.83
2018-02-09T13:53:51.863Z,23.20